createdAt,value
2022-10-02T00:01:35.364Z,10.15
2022-10-02T00:06:46.771Z,10.83
2022-10-02T00:12:00.471Z,12.83
2022-10-02T00:17:07.244Z,11.30
2022-10-02T00:22:31.508Z,10.70
2022-10-02T00:27:52.633Z,11.17
2022-10-02T00:33:08.052Z,10.63
2022-10-02T00:38:22.407Z,9.07
2022-10-02T00:43:41.382Z,12.67
2022-10-02T00:48:54.325Z,21.95
2022-10-02T00:54:11.993Z,16.87
2022-10-02T00:59:45.248Z,9.20
2022-10-02T01:04:50.783Z,16.85
2022-10-02T01:10:03.024Z,16.07
2022-10-02T01:15:18.644Z,13.60
2022-10-02T01:20:31.947Z,15.57
2022-10-02T01:25:40.898Z,17.43
2022-10-02T01:30:49.162Z,13.87
2022-10-02T01:35:54.596Z,12.18
2022-10-02T01:41:02.753Z,15.87
2022-10-02T01:46:27.575Z,11.83
2022-10-02T01:52:00.773Z,15.48
2022-10-02T01:57:19.621Z,14.57
2022-10-02T02:02:33.384Z,12.77
2022-10-02T02:07:50.322Z,20.50
2022-10-02T02:13:04.383Z,13.77
2022-10-02T02:18:15.370Z,19.37
2022-10-02T02:23:24.128Z,14.93
2022-10-02T02:28:41.133Z,17.30
2022-10-02T02:33:51.427Z,19.50
2022-10-02T02:39:02.753Z,18.33
2022-10-02T02:44:15.034Z,17.27
2022-10-02T02:49:20.794Z,17.23
2022-10-02T02:54:32.546Z,11.93
2022-10-02T02:59:43.010Z,18.83
2022-10-02T03:04:48.675Z,17.53
2022-10-02T03:10:04.182Z,24.55
2022-10-02T03:15:31.429Z,22.00
2022-10-02T03:20:43.931Z,16.40
2022-10-02T03:25:56.147Z,12.68
2022-10-02T03:31:05.073Z,22.67
2022-10-02T03:36:13.193Z,16.00
2022-10-02T03:41:18.957Z,18.00
2022-10-02T03:46:26.814Z,16.27
2022-10-02T03:51:32.053Z,10.67
2022-10-02T03:56:43.958Z,11.70
2022-10-02T04:01:56.769Z,10.30
2022-10-02T04:07:05.590Z,13.20
2022-10-02T04:12:17.980Z,5.78
2022-10-02T04:17:31.281Z,15.13
2022-10-02T04:22:39.969Z,11.73
2022-10-02T04:27:50.809Z,9.23
2022-10-02T04:33:01.258Z,16.83
2022-10-02T04:38:28.283Z,6.07
2022-10-02T04:43:49.204Z,4.93
2022-10-02T04:49:18.435Z,6.27
2022-10-02T04:54:40.148Z,2.20
2022-10-02T04:59:58.181Z,5.00
2022-10-02T05:05:18.804Z,8.30
2022-10-02T05:10:41.255Z,8.27
2022-10-02T05:15:58.036Z,14.85
2022-10-02T05:21:25.773Z,15.57
2022-10-02T05:26:52.099Z,11.07
2022-10-02T05:32:17.823Z,17.70
2022-10-02T05:37:46.565Z,6.47
2022-10-02T05:43:01.218Z,10.27
2022-10-02T05:48:11.342Z,10.30
2022-10-02T05:53:30.450Z,11.47
2022-10-02T05:58:40.036Z,8.05
2022-10-02T06:03:50.258Z,9.73
2022-10-02T06:09:04.980Z,7.17
2022-10-02T06:14:16.890Z,7.47
2022-10-02T06:19:30.154Z,7.13
2022-10-02T06:24:42.897Z,11.77
2022-10-02T06:29:53.815Z,13.88
2022-10-02T06:34:59.603Z,11.83
2022-10-02T06:40:19.906Z,12.17
2022-10-02T06:45:34.427Z,9.98
2022-10-02T06:50:50.691Z,10.87
2022-10-02T06:56:06.064Z,15.33
2022-10-02T07:01:24.738Z,12.30
2022-10-02T07:06:43.387Z,10.57
2022-10-02T07:11:59.060Z,10.10
2022-10-02T07:17:25.595Z,10.23
2022-10-02T07:22:45.621Z,12.43
2022-10-02T07:28:07.475Z,10.90
2022-10-02T07:33:27.759Z,12.27
2022-10-02T07:38:57.060Z,9.60
2022-10-02T07:44:17.607Z,12.80
2022-10-02T07:49:33.581Z,12.27
2022-10-02T07:55:00.279Z,14.27
2022-10-02T08:00:15.789Z,15.70
2022-10-02T08:05:25.767Z,11.30
2022-10-02T08:10:37.874Z,9.80
2022-10-02T08:15:48.870Z,11.93
2022-10-02T08:20:55.013Z,14.90
2022-10-02T08:26:07.616Z,8.10
2022-10-02T08:31:16.892Z,12.50
2022-10-02T08:36:41.685Z,12.68
2022-10-02T08:42:27.924Z,13.07
2022-10-02T08:48:09.020Z,13.97
2022-10-02T08:53:47.215Z,9.95
2022-10-02T08:59:28.738Z,5.37
2022-10-02T09:05:02.396Z,12.30
2022-10-02T09:10:46.053Z,9.30
2022-10-02T09:16:04.557Z,6.70
2022-10-02T09:21:19.004Z,11.13
2022-10-02T09:26:46.414Z,8.93
2022-10-02T09:32:24.627Z,8.07
2022-10-02T09:38:11.536Z,9.27
2022-10-02T09:43:42.367Z,8.32
2022-10-02T09:49:19.692Z,8.07
2022-10-02T09:55:15.131Z,5.10
2022-10-02T10:00:34.751Z,6.53
2022-10-02T10:06:04.656Z,6.07
2022-10-02T10:11:22.660Z,5.37
2022-10-02T10:17:09.875Z,6.53
2022-10-02T10:22:49.704Z,7.43
2022-10-02T10:28:33.904Z,12.73
2022-10-02T10:34:17.816Z,7.15
2022-10-02T10:39:49.521Z,7.90
2022-10-02T10:45:22.990Z,5.20
2022-10-02T10:50:55.945Z,10.10
2022-10-02T10:56:26.464Z,12.23
2022-10-02T11:01:43.216Z,7.03
2022-10-02T11:07:21.537Z,6.95
2022-10-02T11:12:59.923Z,9.98
2022-10-02T11:18:17.164Z,9.03
2022-10-02T11:23:48.601Z,6.43
2022-10-02T11:29:24.255Z,8.65
2022-10-02T11:34:54.605Z,7.73
2022-10-02T11:40:24.823Z,7.47
2022-10-02T11:45:55.922Z,9.20
2022-10-02T11:51:13.680Z,9.80
2022-10-02T11:56:46.775Z,7.50
2022-10-02T12:01:57.875Z,9.02
2022-10-02T12:07:26.320Z,4.83
2022-10-02T12:12:48.773Z,9.00
2022-10-02T12:18:21.854Z,5.75
2022-10-02T12:23:52.324Z,5.77
2022-10-02T12:29:08.962Z,7.50
2022-10-02T12:34:25.926Z,8.20
2022-10-02T12:39:46.639Z,9.50
2022-10-02T12:45:22.200Z,4.55
2022-10-02T12:50:43.013Z,6.00
2022-10-02T12:56:08.990Z,9.60
2022-10-02T13:01:43.218Z,6.60
2022-10-02T13:07:21.434Z,7.88
2022-10-02T13:12:51.181Z,4.78
2022-10-02T13:18:12.140Z,6.17
2022-10-02T13:23:29.328Z,4.18
2022-10-02T13:29:02.188Z,11.90
2022-10-02T13:34:38.494Z,7.80
2022-10-02T13:39:57.380Z,13.77
2022-10-02T13:45:12.913Z,7.28
2022-10-02T13:50:30.555Z,6.80
2022-10-02T13:55:41.107Z,5.90
2022-10-02T14:01:01.475Z,5.88
2022-10-02T14:06:20.257Z,7.37
2022-10-02T14:11:33.228Z,5.82
2022-10-02T14:16:53.748Z,5.38
2022-10-02T14:22:21.421Z,4.63
2022-10-02T14:27:58.368Z,8.57
2022-10-02T14:33:11.254Z,6.53
2022-10-02T14:38:42.239Z,9.60
2022-10-02T14:44:28.679Z,7.90
2022-10-02T14:49:47.010Z,7.95
2022-10-02T14:55:29.711Z,7.70
2022-10-02T15:00:47.059Z,7.35
2022-10-02T15:06:16.160Z,7.60
2022-10-02T15:11:32.166Z,4.87
2022-10-02T15:16:58.445Z,8.65
2022-10-02T15:22:09.914Z,6.20
2022-10-02T15:27:25.569Z,8.30
2022-10-02T15:32:42.694Z,6.90
2022-10-02T15:37:56.399Z,14.15
2022-10-02T15:43:40.156Z,10.27
2022-10-02T15:49:04.686Z,7.43
2022-10-02T15:54:24.967Z,6.93
2022-10-02T15:59:48.494Z,8.23
2022-10-02T16:05:04.870Z,7.95
2022-10-02T16:10:21.783Z,8.75
2022-10-02T16:15:33.751Z,7.10
2022-10-02T16:21:18.196Z,8.32
2022-10-02T16:26:34.901Z,11.75
2022-10-02T16:31:56.794Z,10.27
2022-10-02T16:37:07.113Z,5.87
2022-10-02T16:42:22.978Z,6.75
2022-10-02T16:47:38.667Z,10.10
2022-10-02T16:52:49.578Z,10.90
2022-10-02T16:58:02.462Z,9.00
2022-10-02T17:03:15.356Z,8.48
2022-10-02T17:08:31.310Z,11.63
2022-10-02T17:13:50.371Z,17.00
2022-10-02T17:19:00.493Z,17.70
2022-10-02T17:24:27.616Z,17.87
2022-10-02T17:29:40.451Z,14.07
2022-10-02T17:34:54.584Z,8.77
2022-10-02T17:40:08.871Z,9.67
2022-10-02T17:45:29.264Z,7.25
2022-10-02T17:50:56.480Z,9.00
2022-10-02T17:56:31.239Z,9.23
2022-10-02T18:01:42.810Z,11.70
2022-10-02T18:07:03.716Z,9.93
2022-10-02T18:12:22.920Z,22.33
2022-10-02T18:17:41.493Z,19.00
2022-10-02T18:23:23.556Z,12.10
2022-10-02T18:29:05.200Z,12.53
2022-10-02T18:34:46.376Z,12.00
2022-10-02T18:40:07.400Z,6.72
2022-10-02T18:45:27.834Z,8.67
2022-10-02T18:50:49.716Z,8.68
2022-10-02T18:56:09.771Z,8.48
2022-10-02T19:01:37.837Z,5.90
2022-10-02T19:06:51.556Z,8.52
2022-10-02T19:12:02.092Z,4.37
2022-10-02T19:17:11.028Z,5.13
2022-10-02T19:22:23.582Z,10.52
2022-10-02T19:27:36.597Z,5.97
2022-10-02T19:32:44.088Z,8.23
2022-10-02T19:37:52.484Z,9.02
2022-10-02T19:43:08.836Z,5.13
2022-10-02T19:48:20.528Z,7.63
2022-10-02T19:53:29.587Z,8.05
2022-10-02T19:58:42.389Z,4.27
2022-10-02T20:03:48.719Z,6.73
2022-10-02T20:08:59.334Z,7.32
2022-10-02T20:14:11.872Z,7.37
2022-10-02T20:19:21.017Z,9.47
2022-10-02T20:24:34.463Z,13.25
2022-10-02T20:29:47.174Z,7.30
2022-10-02T20:34:56.608Z,6.17
2022-10-02T20:40:11.437Z,6.55
2022-10-02T20:45:20.024Z,5.23
2022-10-02T20:50:35.732Z,4.20
2022-10-02T20:55:49.519Z,8.75
2022-10-02T21:01:18.666Z,8.13
2022-10-02T21:06:48.738Z,8.20
2022-10-02T21:12:11.431Z,5.93
2022-10-02T21:17:46.362Z,6.93
2022-10-02T21:23:12.379Z,7.73
2022-10-02T21:28:43.625Z,7.00
2022-10-02T21:34:04.324Z,6.67
2022-10-02T21:39:39.650Z,8.00
2022-10-02T21:45:28.846Z,10.82
2022-10-02T21:51:01.652Z,6.40
2022-10-02T21:56:49.647Z,6.97
2022-10-02T22:02:23.771Z,5.50
2022-10-02T22:07:37.601Z,5.87
2022-10-02T22:13:00.048Z,6.60
2022-10-02T22:18:14.760Z,8.05
2022-10-02T22:23:52.248Z,8.10
2022-10-02T22:29:02.055Z,6.17
2022-10-02T22:34:25.478Z,6.88
2022-10-02T22:39:40.218Z,6.67
2022-10-02T22:44:51.604Z,8.30
2022-10-02T22:50:00.870Z,8.55
2022-10-02T22:55:15.218Z,7.53
2022-10-02T23:00:23.851Z,6.23
2022-10-02T23:05:35.913Z,9.90
2022-10-02T23:10:48.701Z,13.27
2022-10-02T23:16:00.513Z,6.03
2022-10-02T23:21:24.715Z,8.32
2022-10-02T23:26:36.606Z,6.87
2022-10-02T23:31:50.947Z,6.03
2022-10-02T23:36:59.272Z,9.05
2022-10-02T23:42:10.175Z,5.93
2022-10-02T23:47:26.027Z,8.47
2022-10-02T23:52:54.646Z,7.35
2022-10-02T23:58:18.703Z,7.57
